createdAt,value
2023-02-15T00:03:23.834Z,12.15
2023-02-15T00:07:25.416Z,11.50
2023-02-15T00:11:51.163Z,10.70
2023-02-15T00:15:53.199Z,11.35
2023-02-15T00:19:54.821Z,12.87
2023-02-15T00:23:57.589Z,13.07
2023-02-15T00:36:05.455Z,10.85
2023-02-15T00:40:07.768Z,11.38
2023-02-15T00:44:09.484Z,11.48
2023-02-15T00:48:11.088Z,11.25
2023-02-15T00:52:12.684Z,11.20
2023-02-15T00:56:14.648Z,11.65
2023-02-15T01:00:16.493Z,8.73
2023-02-15T01:04:18.226Z,10.95
2023-02-15T01:08:19.992Z,11.48
2023-02-15T01:12:21.627Z,11.82
2023-02-15T01:16:25.483Z,12.25
2023-02-15T01:20:30.484Z,12.93
2023-02-15T01:24:32.317Z,13.20
2023-02-15T01:28:33.847Z,11.70
2023-02-15T01:32:36.671Z,11.48
2023-02-15T01:36:38.314Z,11.17
2023-02-15T01:40:40.114Z,12.73
2023-02-15T01:44:49.251Z,12.57
2023-02-15T01:49:02.544Z,13.55
2023-02-15T01:53:21.074Z,12.43
2023-02-15T01:57:27.240Z,12.27
2023-02-15T02:01:29.441Z,13.05
2023-02-15T02:05:33.724Z,12.77
2023-02-15T02:09:35.515Z,12.52
2023-02-15T02:13:37.166Z,10.38
2023-02-15T02:17:56.230Z,11.63
2023-02-15T02:22:08.664Z,10.38
2023-02-15T02:26:20.444Z,11.70
2023-02-15T02:30:53.217Z,12.75
2023-02-15T02:35:19.922Z,12.27
2023-02-15T02:39:40.271Z,11.88
2023-02-15T02:43:48.954Z,11.55
2023-02-15T02:48:03.153Z,10.70
2023-02-15T02:53:03.347Z,11.40
2023-02-15T02:57:10.323Z,11.18
2023-02-15T03:01:17.962Z,13.43
2023-02-15T03:05:26.225Z,11.60
2023-02-15T03:09:42.591Z,13.30
2023-02-15T03:13:48.475Z,16.45
2023-02-15T03:18:03.788Z,11.02
2023-02-15T03:22:21.399Z,12.57
2023-02-15T03:26:25.578Z,10.95
2023-02-15T03:30:30.687Z,14.05
2023-02-15T03:34:32.724Z,13.80
2023-02-15T03:38:47.310Z,13.32
2023-02-15T03:43:05.442Z,14.38
2023-02-15T03:47:14.308Z,13.82
2023-02-15T03:51:35.337Z,14.32
2023-02-15T03:55:37.631Z,15.13
2023-02-15T03:59:57.938Z,14.93
2023-02-15T04:04:07.441Z,12.65
2023-02-15T04:08:09.623Z,12.13
2023-02-15T04:12:11.339Z,13.25
2023-02-15T04:16:13.167Z,12.25
2023-02-15T04:20:33.250Z,11.70
2023-02-15T04:24:53.817Z,11.35
2023-02-15T04:28:55.353Z,15.00
2023-02-15T04:32:58.211Z,13.43
2023-02-15T04:36:59.944Z,12.60
2023-02-15T04:41:01.484Z,13.27
2023-02-15T04:45:04.397Z,11.68
2023-02-15T04:49:06.133Z,12.23
2023-02-15T04:53:07.697Z,13.00
2023-02-15T04:57:09.599Z,12.38
2023-02-15T05:01:11.576Z,11.67
2023-02-15T05:05:14.104Z,10.60
2023-02-15T05:09:16.102Z,12.98
2023-02-15T05:13:17.730Z,11.80
2023-02-15T05:17:19.317Z,12.27
2023-02-15T05:21:21.082Z,13.45
2023-02-15T05:25:48.575Z,12.95
2023-02-15T05:29:50.352Z,13.65
2023-02-15T05:33:52.064Z,13.35
2023-02-15T05:37:54.194Z,14.65
2023-02-15T05:41:59.307Z,13.38
2023-02-15T05:46:02.140Z,12.38
2023-02-15T05:50:04.341Z,11.85
2023-02-15T05:54:06.067Z,12.23
2023-02-15T05:58:08.773Z,11.40
2023-02-15T06:02:10.630Z,11.13
2023-02-15T06:06:12.510Z,11.37
2023-02-15T06:10:14.188Z,10.63
2023-02-15T06:14:15.870Z,11.10
2023-02-15T06:18:17.536Z,10.68
2023-02-15T06:22:19.314Z,10.23
2023-02-15T06:26:21.116Z,10.98
2023-02-15T06:30:22.970Z,10.55
2023-02-15T06:34:24.971Z,11.23
2023-02-15T06:38:27.336Z,11.07
2023-02-15T06:42:28.962Z,11.90
2023-02-15T06:46:30.721Z,8.15
2023-02-15T06:50:32.438Z,11.93
2023-02-15T06:54:34.877Z,8.48
2023-02-15T06:58:41.163Z,11.07
2023-02-15T07:02:42.790Z,11.85
2023-02-15T07:06:44.661Z,11.63
2023-02-15T07:10:51.467Z,11.02
2023-02-15T07:14:53.088Z,12.30
2023-02-15T07:18:55.285Z,12.68
2023-02-15T07:22:56.869Z,12.02
2023-02-15T07:27:02.251Z,12.13
2023-02-15T07:31:05.273Z,12.38
2023-02-15T07:35:07.707Z,13.05
2023-02-15T07:39:11.635Z,12.82
2023-02-15T07:43:14.540Z,13.25
2023-02-15T07:47:16.532Z,14.18
2023-02-15T07:51:18.388Z,14.77
2023-02-15T07:55:21.182Z,15.18
2023-02-15T07:59:25.342Z,14.13
2023-02-15T08:03:30.213Z,13.40
2023-02-15T08:07:32.650Z,12.18
2023-02-15T08:11:41.919Z,13.93
2023-02-15T08:15:51.178Z,13.38
2023-02-15T08:19:52.791Z,13.80
2023-02-15T08:23:55.411Z,13.45
2023-02-15T08:27:57.098Z,12.52
2023-02-15T08:32:08.295Z,13.10
2023-02-15T08:36:20.216Z,12.65
2023-02-15T08:40:21.811Z,13.13
2023-02-15T08:44:24.157Z,12.77
2023-02-15T08:48:26.185Z,14.48
2023-02-15T08:52:27.838Z,14.00
2023-02-15T08:56:32.952Z,13.25
2023-02-15T09:00:36.149Z,14.23
2023-02-15T09:04:39.867Z,13.85
2023-02-15T09:08:41.658Z,13.07
2023-02-15T09:12:43.558Z,13.87
2023-02-15T09:16:47.548Z,13.07
2023-02-15T09:20:50.054Z,13.43
2023-02-15T09:25:14.872Z,13.90
2023-02-15T09:29:17.631Z,12.75
2023-02-15T09:33:19.128Z,14.35
2023-02-15T09:37:22.505Z,13.60
2023-02-15T09:41:57.837Z,16.35
2023-02-15T09:46:20.451Z,14.85
2023-02-15T09:50:41.154Z,15.00
2023-02-15T09:54:48.311Z,13.73
2023-02-15T09:58:52.676Z,14.02
2023-02-15T10:03:26.679Z,13.45
2023-02-15T10:07:45.717Z,14.43
2023-02-15T10:12:21.947Z,12.60
2023-02-15T10:16:32.665Z,13.43
2023-02-15T10:20:41.621Z,13.18
2023-02-15T10:25:00.285Z,13.90
2023-02-15T10:29:37.456Z,15.48
2023-02-15T10:33:43.217Z,12.93
2023-02-15T10:37:59.661Z,13.32
2023-02-15T10:42:31.055Z,12.43
2023-02-15T10:46:52.104Z,12.75
2023-02-15T10:50:54.436Z,13.65
2023-02-15T10:55:18.901Z,14.85
2023-02-15T10:59:49.386Z,15.80
2023-02-15T11:04:06.964Z,15.10
2023-02-15T11:08:11.771Z,16.08
2023-02-15T11:16:47.791Z,16.42
2023-02-15T11:21:04.964Z,15.57
2023-02-15T11:25:19.783Z,15.30
2023-02-15T11:29:29.072Z,15.35
2023-02-15T11:33:37.160Z,17.48
2023-02-15T11:38:19.357Z,16.77
2023-02-15T11:42:26.604Z,14.45
2023-02-15T11:46:28.507Z,16.55
2023-02-15T11:50:33.018Z,17.63
2023-02-15T11:54:40.699Z,19.33
2023-02-15T11:58:51.696Z,19.40
2023-02-15T12:02:56.030Z,16.45
2023-02-15T12:07:10.242Z,18.40
2023-02-15T12:11:20.749Z,17.63
2023-02-15T12:15:32.474Z,19.17
2023-02-15T12:19:41.686Z,17.67
2023-02-15T12:23:49.410Z,19.23
2023-02-15T12:27:51.549Z,18.15
2023-02-15T12:31:53.884Z,18.53
2023-02-15T12:36:03.211Z,17.70
2023-02-15T12:40:31.308Z,17.70
2023-02-15T12:44:38.270Z,17.52
2023-02-15T12:48:40.965Z,16.98
2023-02-15T12:52:42.576Z,17.08
2023-02-15T12:56:45.159Z,17.70
2023-02-15T13:00:47.458Z,18.42
2023-02-15T13:04:51.124Z,16.55
2023-02-15T13:08:55.425Z,16.23
2023-02-15T13:12:58.965Z,15.63
2023-02-15T13:17:03.475Z,17.80
2023-02-15T13:21:14.876Z,17.38
2023-02-15T13:25:23.193Z,18.40
2023-02-15T13:29:31.226Z,17.58
2023-02-15T13:33:36.918Z,16.90
2023-02-15T13:37:53.562Z,17.02
2023-02-15T13:42:14.095Z,18.05
2023-02-15T13:46:15.916Z,17.38
2023-02-15T13:50:33.621Z,18.25
2023-02-15T13:55:13.528Z,17.77
2023-02-15T13:59:26.139Z,16.67
2023-02-15T14:03:58.193Z,17.05
2023-02-15T14:08:08.740Z,18.58
2023-02-15T14:12:38.451Z,18.63
2023-02-15T14:17:07.775Z,19.02
2023-02-15T14:21:15.795Z,18.23
2023-02-15T14:25:21.260Z,18.73
2023-02-15T14:29:49.636Z,20.25
2023-02-15T14:33:57.058Z,18.85
2023-02-15T14:38:10.561Z,18.73
2023-02-15T14:42:24.727Z,17.70
2023-02-15T14:47:00.295Z,17.90
2023-02-15T14:51:02.550Z,18.98
2023-02-15T14:55:07.865Z,19.00
2023-02-15T14:59:18.977Z,17.85
2023-02-15T15:03:27.999Z,19.35
2023-02-15T15:07:39.431Z,17.95
2023-02-15T15:11:50.957Z,18.48
2023-02-15T15:15:54.163Z,17.55
2023-02-15T15:19:55.783Z,18.88
2023-02-15T15:23:57.330Z,18.63
2023-02-15T15:27:58.973Z,18.75
2023-02-15T15:32:02.362Z,19.40
2023-02-15T15:36:22.691Z,19.27
2023-02-15T15:40:48.870Z,18.38
2023-02-15T15:45:15.154Z,19.20
2023-02-15T15:49:20.286Z,19.23
2023-02-15T15:53:25.168Z,17.92
2023-02-15T15:57:39.438Z,17.83
2023-02-15T16:01:44.189Z,18.30
2023-02-15T16:05:47.293Z,19.75
2023-02-15T16:10:01.965Z,19.77
2023-02-15T16:14:03.593Z,20.35
2023-02-15T16:18:05.686Z,19.45
2023-02-15T16:22:19.274Z,19.97
2023-02-15T16:26:45.364Z,20.85
2023-02-15T16:30:55.619Z,20.88
2023-02-15T16:35:00.448Z,20.52
2023-02-15T16:39:17.672Z,20.38
2023-02-15T16:43:25.637Z,20.13
2023-02-15T16:47:30.658Z,21.58
2023-02-15T16:51:34.331Z,20.60
2023-02-15T16:55:42.854Z,22.52
2023-02-15T16:59:48.943Z,22.15
2023-02-15T17:04:15.134Z,22.25
2023-02-15T17:08:35.746Z,22.77
2023-02-15T17:12:47.138Z,23.40
2023-02-15T17:16:55.435Z,20.98
2023-02-15T17:21:00.048Z,21.45
2023-02-15T17:25:05.299Z,21.55
2023-02-15T17:29:20.136Z,20.98
2023-02-15T17:33:30.654Z,22.38
2023-02-15T17:37:45.873Z,22.17
2023-02-15T17:41:48.455Z,22.98
2023-02-15T17:45:51.467Z,22.70
2023-02-15T17:49:53.666Z,24.25
2023-02-15T17:54:14.000Z,18.58
2023-02-15T17:58:19.554Z,24.38
2023-02-15T18:02:39.797Z,23.15
2023-02-15T18:07:02.597Z,23.70
2023-02-15T18:11:23.139Z,21.52
2023-02-15T18:15:24.851Z,22.25
2023-02-15T18:19:27.653Z,23.17
2023-02-15T18:27:30.953Z,20.27
2023-02-15T18:31:32.631Z,24.77
2023-02-15T18:35:34.956Z,26.73
2023-02-15T18:39:40.815Z,24.80
2023-02-15T18:43:43.138Z,24.95
2023-02-15T18:47:46.028Z,25.50
2023-02-15T18:51:47.936Z,25.02
2023-02-15T18:55:49.767Z,23.40
2023-02-15T18:59:53.318Z,24.85
2023-02-15T19:03:55.005Z,24.60
2023-02-15T19:07:58.688Z,23.73
2023-02-15T19:12:00.792Z,24.08
2023-02-15T19:16:02.785Z,23.00
2023-02-15T19:20:05.025Z,24.00
2023-02-15T19:24:12.581Z,18.83
2023-02-15T19:28:35.808Z,23.38
2023-02-15T19:32:38.790Z,21.60
2023-02-15T19:36:40.925Z,26.83
2023-02-15T19:40:42.542Z,25.10
2023-02-15T19:44:44.176Z,25.50
2023-02-15T19:48:46.877Z,27.45
2023-02-15T19:52:48.690Z,29.58
2023-02-15T19:56:50.368Z,30.80
2023-02-15T20:00:52.410Z,30.45
2023-02-15T20:04:54.189Z,29.60
2023-02-15T20:08:55.963Z,29.35
2023-02-15T20:13:00.798Z,30.17
2023-02-15T20:17:02.463Z,29.50
2023-02-15T20:21:05.163Z,27.92
2023-02-15T20:29:16.761Z,24.98
2023-02-15T20:33:19.603Z,28.98
2023-02-15T20:41:37.755Z,26.20
2023-02-15T20:45:39.346Z,27.20
2023-02-15T20:49:40.989Z,30.98
2023-02-15T20:53:42.629Z,27.55
2023-02-15T20:57:45.463Z,27.23
2023-02-15T21:05:49.853Z,24.98
2023-02-15T21:09:52.621Z,29.70
2023-02-15T21:17:58.282Z,27.23
2023-02-15T21:22:00.894Z,27.95
2023-02-15T21:26:02.905Z,30.65
2023-02-15T21:30:17.847Z,30.17
2023-02-15T21:34:20.556Z,29.35
2023-02-15T21:38:25.157Z,28.25
2023-02-15T21:42:46.186Z,29.45
2023-02-15T21:47:06.557Z,30.73
2023-02-15T21:51:26.810Z,27.80
2023-02-15T21:55:28.503Z,26.52
2023-02-15T21:59:30.184Z,26.02
2023-02-15T22:03:37.409Z,27.50
2023-02-15T22:07:39.107Z,28.10
2023-02-15T22:11:40.708Z,26.52
2023-02-15T22:15:43.081Z,25.25
2023-02-15T22:19:46.243Z,26.05
2023-02-15T22:23:47.999Z,27.23
2023-02-15T22:27:50.957Z,27.10
2023-02-15T22:31:54.180Z,27.02
2023-02-15T22:35:56.679Z,26.85
2023-02-15T22:39:58.219Z,33.45
2023-02-15T22:44:00.282Z,36.10
2023-02-15T22:48:02.513Z,37.47
2023-02-15T22:52:06.435Z,26.23
2023-02-15T22:56:13.858Z,34.83
2023-02-15T23:00:18.667Z,39.40
2023-02-15T23:04:23.307Z,40.22
2023-02-15T23:08:25.022Z,32.70
2023-02-15T23:12:50.316Z,38.40
2023-02-15T23:16:53.855Z,33.00
2023-02-15T23:21:02.092Z,34.40
2023-02-15T23:25:05.810Z,46.70
2023-02-15T23:29:14.181Z,36.08
2023-02-15T23:33:16.056Z,35.95
2023-02-15T23:37:18.420Z,41.40
2023-02-15T23:41:24.445Z,49.42
2023-02-15T23:45:26.494Z,40.50
2023-02-15T23:49:29.098Z,37.17
2023-02-15T23:53:31.035Z,40.38
2023-02-15T23:57:32.616Z,45.63
